createdAt,value
2023-01-08T00:01:30.152Z,3.75
2023-01-08T00:03:57.079Z,7.45
2023-01-08T00:06:25.408Z,5.13
2023-01-08T00:08:52.255Z,4.88
2023-01-08T00:11:19.151Z,7.65
2023-01-08T00:13:46.111Z,5.00
2023-01-08T00:16:16.570Z,2.72
2023-01-08T00:18:44.668Z,5.72
2023-01-08T00:21:12.545Z,8.30
2023-01-08T00:23:39.745Z,5.53
2023-01-08T00:26:09.465Z,6.90
2023-01-08T00:28:37.458Z,4.57
2023-01-08T00:31:06.206Z,8.35
2023-01-08T00:33:33.310Z,8.27
2023-01-08T00:36:00.366Z,2.97
2023-01-08T00:38:28.803Z,4.82
2023-01-08T00:40:56.143Z,5.75
2023-01-08T00:43:23.343Z,6.60
2023-01-08T00:45:53.889Z,9.50
2023-01-08T00:48:22.589Z,6.97
2023-01-08T00:50:54.094Z,4.85
2023-01-08T00:53:22.071Z,6.80
2023-01-08T00:55:49.490Z,2.95
2023-01-08T00:58:16.888Z,4.30
2023-01-08T01:00:43.847Z,5.10
2023-01-08T01:03:10.706Z,6.22
2023-01-08T01:05:37.645Z,6.35
2023-01-08T01:08:04.839Z,3.42
2023-01-08T01:10:32.049Z,4.68
2023-01-08T01:12:59.084Z,8.38
2023-01-08T01:15:26.061Z,7.40
2023-01-08T01:17:52.899Z,6.95
2023-01-08T01:20:19.762Z,6.35
2023-01-08T01:22:46.839Z,4.55
2023-01-08T01:25:13.802Z,5.15
2023-01-08T01:27:42.119Z,4.63
2023-01-08T01:30:09.872Z,6.25
2023-01-08T01:32:36.658Z,6.03
2023-01-08T01:35:04.098Z,7.32
2023-01-08T01:37:30.901Z,6.93
2023-01-08T01:39:58.125Z,7.82
2023-01-08T01:42:40.109Z,6.10
2023-01-08T01:45:23.533Z,10.55
2023-01-08T01:48:03.983Z,6.63
2023-01-08T01:50:43.663Z,9.82
2023-01-08T01:53:19.628Z,7.97
2023-01-08T01:55:47.858Z,7.45
2023-01-08T01:58:32.938Z,7.03
2023-01-08T02:01:05.123Z,5.05
2023-01-08T02:03:36.257Z,10.43
2023-01-08T02:06:38.423Z,6.53
2023-01-08T02:09:23.571Z,5.95
2023-01-08T02:12:10.417Z,7.80
2023-01-08T02:14:55.282Z,9.35
2023-01-08T02:17:42.455Z,6.88
2023-01-08T02:20:18.200Z,6.10
2023-01-08T02:23:05.698Z,6.38
2023-01-08T02:25:35.241Z,4.57
2023-01-08T02:28:05.993Z,6.95
2023-01-08T02:30:33.232Z,9.88
2023-01-08T02:33:00.075Z,6.32
2023-01-08T02:35:42.471Z,8.18
2023-01-08T02:38:14.091Z,5.28
2023-01-08T02:41:03.531Z,6.78
2023-01-08T02:43:39.963Z,8.15
2023-01-08T02:46:10.931Z,7.22
2023-01-08T02:48:49.253Z,3.72
2023-01-08T02:51:20.038Z,11.95
2023-01-08T02:53:50.288Z,7.72
2023-01-08T02:56:25.104Z,7.55
2023-01-08T02:58:54.043Z,4.95
2023-01-08T03:01:23.100Z,9.80
2023-01-08T03:03:54.725Z,5.30
2023-01-08T03:06:22.603Z,11.23
2023-01-08T03:08:52.218Z,6.43
2023-01-08T03:11:21.793Z,9.32
2023-01-08T03:14:04.704Z,8.68
2023-01-08T03:16:42.058Z,7.25
2023-01-08T03:19:22.973Z,13.45
2023-01-08T03:21:52.336Z,12.18
2023-01-08T03:24:27.046Z,14.95
2023-01-08T03:26:58.476Z,8.45
2023-01-08T03:29:27.778Z,6.05
2023-01-08T03:31:58.715Z,11.15
2023-01-08T03:34:27.112Z,6.55
2023-01-08T03:36:58.660Z,7.13
2023-01-08T03:39:28.761Z,9.90
2023-01-08T03:42:00.352Z,10.38
2023-01-08T03:44:27.343Z,7.10
2023-01-08T03:46:56.804Z,3.97
2023-01-08T03:49:27.288Z,8.32
2023-01-08T03:51:54.380Z,15.15
2023-01-08T03:54:25.835Z,14.50
2023-01-08T03:56:52.982Z,9.63
2023-01-08T03:59:19.929Z,15.75
2023-01-08T04:01:46.988Z,17.67
2023-01-08T04:04:14.099Z,12.07
2023-01-08T04:06:40.985Z,10.02
2023-01-08T04:09:07.861Z,9.60
2023-01-08T04:11:37.834Z,12.27
2023-01-08T04:14:04.784Z,5.80
2023-01-08T04:16:31.819Z,10.93
2023-01-08T04:18:58.765Z,10.23
2023-01-08T04:21:25.810Z,8.02
2023-01-08T04:23:52.828Z,6.30
2023-01-08T04:26:19.765Z,12.65
2023-01-08T04:28:47.253Z,14.32
2023-01-08T04:31:14.228Z,13.38
2023-01-08T04:33:41.112Z,13.93
2023-01-08T04:36:08.107Z,9.60
2023-01-08T04:38:35.186Z,12.80
2023-01-08T04:41:02.887Z,9.65
2023-01-08T04:43:30.963Z,16.15
2023-01-08T04:46:03.083Z,14.32
2023-01-08T04:48:31.208Z,16.13
2023-01-08T04:51:00.212Z,14.95
2023-01-08T04:53:27.835Z,11.00
2023-01-08T04:55:54.926Z,16.55
2023-01-08T04:58:22.589Z,20.13
2023-01-08T05:00:49.517Z,22.27
2023-01-08T05:03:16.534Z,10.68
2023-01-08T05:05:43.412Z,18.13
2023-01-08T05:08:10.314Z,11.63
2023-01-08T05:10:37.099Z,14.15
2023-01-08T05:13:04.129Z,6.72
2023-01-08T05:15:31.169Z,10.18
2023-01-08T05:18:03.107Z,7.43
2023-01-08T05:20:30.551Z,11.73
2023-01-08T05:22:58.501Z,6.38
2023-01-08T05:25:25.761Z,10.05
2023-01-08T05:27:53.695Z,10.32
2023-01-08T05:30:20.626Z,11.75
2023-01-08T05:32:47.576Z,11.80
2023-01-08T05:35:14.407Z,13.50
2023-01-08T05:37:41.409Z,10.77
2023-01-08T05:40:08.799Z,11.48
2023-01-08T05:42:36.764Z,7.28
2023-01-08T05:45:08.022Z,10.48
2023-01-08T05:47:35.531Z,8.25
2023-01-08T05:50:02.858Z,11.77
2023-01-08T05:52:30.155Z,14.77
2023-01-08T05:54:57.155Z,19.88
2023-01-08T05:57:24.065Z,6.93
2023-01-08T05:59:50.932Z,15.20
2023-01-08T06:02:17.922Z,12.57
2023-01-08T06:04:44.819Z,11.32
2023-01-08T06:07:11.857Z,12.75
2023-01-08T06:09:38.714Z,10.85
2023-01-08T06:12:05.937Z,14.45
2023-01-08T06:14:32.969Z,16.13
2023-01-08T06:16:59.763Z,10.88
2023-01-08T06:19:26.604Z,18.05
2023-01-08T06:21:53.717Z,18.58
2023-01-08T06:24:20.692Z,6.07
2023-01-08T06:26:47.698Z,10.48
2023-01-08T06:29:15.117Z,10.50
2023-01-08T06:31:42.642Z,13.15
2023-01-08T06:34:09.686Z,14.05
2023-01-08T06:36:36.782Z,6.38
2023-01-08T06:39:06.520Z,15.27
2023-01-08T06:41:34.213Z,11.38
2023-01-08T06:44:01.139Z,11.75
2023-01-08T06:46:28.007Z,13.40
2023-01-08T06:48:55.029Z,12.45
2023-01-08T06:51:22.027Z,11.43
2023-01-08T06:53:49.486Z,8.40
2023-01-08T06:56:16.416Z,9.68
2023-01-08T06:58:43.908Z,11.93
2023-01-08T07:01:20.467Z,18.40
2023-01-08T07:03:47.447Z,13.68
2023-01-08T07:06:19.561Z,8.77
2023-01-08T07:08:47.331Z,9.45
2023-01-08T07:11:15.197Z,11.52
2023-01-08T07:13:42.587Z,15.85
2023-01-08T07:16:11.896Z,10.25
2023-01-08T07:18:39.386Z,18.75
2023-01-08T07:21:07.761Z,12.43
2023-01-08T07:23:38.477Z,11.95
2023-01-08T07:26:07.600Z,11.15
2023-01-08T07:28:34.666Z,12.93
2023-01-08T07:31:06.252Z,19.55
2023-01-08T07:33:33.771Z,14.93
2023-01-08T07:36:01.061Z,12.10
2023-01-08T07:38:27.966Z,11.02
2023-01-08T07:40:54.943Z,13.43
2023-01-08T07:43:21.895Z,9.43
2023-01-08T07:45:48.730Z,8.07
2023-01-08T07:48:16.568Z,16.33
2023-01-08T07:50:44.256Z,12.95
2023-01-08T07:53:12.888Z,12.10
2023-01-08T07:55:39.939Z,10.07
2023-01-08T07:58:12.047Z,9.57
2023-01-08T08:00:39.711Z,12.50
2023-01-08T08:03:13.792Z,7.30
2023-01-08T08:05:40.757Z,10.98
2023-01-08T08:08:12.207Z,10.90
2023-01-08T08:10:40.541Z,8.32
2023-01-08T08:13:07.847Z,13.65
2023-01-08T08:15:36.396Z,8.77
2023-01-08T08:18:03.676Z,7.80
2023-01-08T08:20:30.754Z,10.18
2023-01-08T08:23:08.972Z,10.77
2023-01-08T08:25:36.969Z,9.23
2023-01-08T08:28:05.805Z,10.02
2023-01-08T08:30:35.185Z,4.53
2023-01-08T08:33:04.508Z,6.47
2023-01-08T08:35:33.459Z,8.38
2023-01-08T08:38:00.954Z,4.57
2023-01-08T08:40:28.663Z,7.10
2023-01-08T08:42:56.896Z,5.47
2023-01-08T08:45:24.042Z,7.15
2023-01-08T08:47:51.114Z,4.47
2023-01-08T08:50:19.125Z,3.10
2023-01-08T08:52:49.097Z,8.15
2023-01-08T08:55:17.574Z,4.75
2023-01-08T08:57:46.350Z,1.92
2023-01-08T09:00:14.513Z,2.97
2023-01-08T09:02:41.657Z,3.28
2023-01-08T09:05:08.852Z,2.45
2023-01-08T09:07:36.161Z,2.65
2023-01-08T09:10:04.087Z,4.40
2023-01-08T09:12:33.520Z,3.13
2023-01-08T09:15:00.614Z,3.38
2023-01-08T09:17:27.826Z,3.83
2023-01-08T09:19:57.515Z,4.57
2023-01-08T09:22:24.492Z,2.97
2023-01-08T09:24:55.245Z,4.32
2023-01-08T09:27:23.915Z,2.95
2023-01-08T09:29:50.869Z,2.08
2023-01-08T09:32:17.941Z,3.35
2023-01-08T09:34:44.915Z,4.32
2023-01-08T09:37:11.988Z,4.32
2023-01-08T09:39:41.162Z,5.28
2023-01-08T09:42:13.335Z,4.25
2023-01-08T09:44:46.321Z,2.75
2023-01-08T09:47:38.232Z,2.53
2023-01-08T09:50:13.274Z,5.05
2023-01-08T09:52:42.795Z,3.30
2023-01-08T09:55:15.295Z,6.47
2023-01-08T09:57:43.794Z,3.33
2023-01-08T10:00:22.457Z,2.22
2023-01-08T10:02:49.553Z,8.88
2023-01-08T10:05:18.440Z,6.25
2023-01-08T10:07:46.615Z,4.18
2023-01-08T10:10:29.261Z,5.47
2023-01-08T10:12:56.472Z,5.13
2023-01-08T10:15:23.837Z,4.43
2023-01-08T10:18:04.732Z,4.13
2023-01-08T10:20:32.768Z,6.80
2023-01-08T10:23:17.072Z,5.57
2023-01-08T10:25:56.152Z,3.55
2023-01-08T10:28:29.488Z,9.68
2023-01-08T10:31:12.159Z,5.75
2023-01-08T10:33:48.214Z,8.90
2023-01-08T10:36:23.379Z,8.98
2023-01-08T10:39:00.370Z,4.88
2023-01-08T10:41:53.867Z,5.45
2023-01-08T10:44:29.775Z,4.63
2023-01-08T10:47:00.205Z,10.70
2023-01-08T10:49:33.234Z,7.05
2023-01-08T10:52:01.014Z,6.35
2023-01-08T10:54:31.679Z,7.28
2023-01-08T10:57:01.062Z,7.10
2023-01-08T10:59:29.369Z,6.68
2023-01-08T11:01:58.278Z,5.20
2023-01-08T11:04:35.030Z,3.95
2023-01-08T11:07:04.677Z,8.63
2023-01-08T11:09:34.827Z,8.55
2023-01-08T11:12:02.015Z,7.38
2023-01-08T11:14:28.896Z,8.32
2023-01-08T11:16:56.563Z,12.82
2023-01-08T11:19:32.047Z,6.75
2023-01-08T11:22:19.067Z,8.25
2023-01-08T11:24:47.323Z,4.25
2023-01-08T11:27:26.814Z,6.85
2023-01-08T11:30:13.596Z,10.23
2023-01-08T11:32:57.817Z,12.55
2023-01-08T11:35:31.408Z,12.45
2023-01-08T11:38:00.578Z,6.57
2023-01-08T11:40:52.199Z,7.50
2023-01-08T11:43:37.527Z,8.32
2023-01-08T11:46:28.750Z,6.78
2023-01-08T11:49:01.805Z,5.97
2023-01-08T11:51:40.555Z,8.10
2023-01-08T11:54:26.236Z,6.28
2023-01-08T11:57:24.721Z,7.25
2023-01-08T11:59:57.502Z,5.78
2023-01-08T12:02:34.882Z,9.15
2023-01-08T12:05:26.207Z,8.75
2023-01-08T12:08:04.005Z,8.95
2023-01-08T12:11:00.266Z,8.35
2023-01-08T12:13:43.974Z,5.10
2023-01-08T12:16:41.772Z,6.93
2023-01-08T12:19:23.971Z,9.45
2023-01-08T12:22:02.776Z,4.45
2023-01-08T12:24:33.815Z,2.63
2023-01-08T12:27:17.192Z,7.10
2023-01-08T12:30:01.535Z,6.55
2023-01-08T12:32:40.063Z,10.65
2023-01-08T12:35:25.712Z,10.85
2023-01-08T12:38:01.909Z,10.13
2023-01-08T12:40:47.229Z,10.23
2023-01-08T12:43:25.963Z,8.85
2023-01-08T12:45:57.038Z,5.32
2023-01-08T12:48:37.983Z,4.25
2023-01-08T12:51:21.031Z,3.63
2023-01-08T12:53:59.796Z,8.60
2023-01-08T12:56:46.329Z,13.40
2023-01-08T12:59:28.788Z,10.63
2023-01-08T13:02:06.156Z,5.63
2023-01-08T13:04:47.952Z,13.23
2023-01-08T13:07:26.337Z,10.48
2023-01-08T13:10:00.515Z,9.70
2023-01-08T13:12:40.370Z,10.90
2023-01-08T13:15:08.764Z,9.27
2023-01-08T13:17:37.830Z,10.20
2023-01-08T13:20:08.370Z,7.18
2023-01-08T13:22:37.494Z,12.13
2023-01-08T13:25:17.003Z,6.72
2023-01-08T13:27:46.137Z,9.05
2023-01-08T13:30:34.467Z,8.65
2023-01-08T13:33:01.873Z,6.25
2023-01-08T13:35:31.440Z,8.98
2023-01-08T13:38:10.835Z,7.75
2023-01-08T13:40:38.127Z,10.63
2023-01-08T13:43:12.130Z,11.52
2023-01-08T13:45:39.695Z,15.18
2023-01-08T13:48:06.812Z,10.10
2023-01-08T13:50:36.629Z,9.45
2023-01-08T13:53:04.655Z,6.38
2023-01-08T13:55:36.606Z,15.77
2023-01-08T13:58:18.163Z,11.93
2023-01-08T14:00:46.646Z,9.38
2023-01-08T14:03:26.758Z,10.48
2023-01-08T14:06:08.057Z,7.75
2023-01-08T14:08:35.103Z,9.35
2023-01-08T14:11:04.785Z,9.05
2023-01-08T14:13:34.348Z,11.75
2023-01-08T14:16:05.720Z,10.73
2023-01-08T14:18:33.059Z,11.35
2023-01-08T14:21:00.008Z,15.10
2023-01-08T14:23:30.393Z,11.93
2023-01-08T14:26:02.153Z,9.82
2023-01-08T14:28:29.572Z,8.43
2023-01-08T14:30:57.940Z,15.50
2023-01-08T14:33:30.808Z,10.57
2023-01-08T14:35:58.377Z,13.82
2023-01-08T14:38:25.437Z,16.42
2023-01-08T14:41:11.464Z,13.73
2023-01-08T14:43:49.873Z,13.95
2023-01-08T14:46:26.305Z,13.93
2023-01-08T14:48:57.337Z,12.82
2023-01-08T14:51:30.767Z,11.32
2023-01-08T14:54:01.654Z,10.00
2023-01-08T14:56:32.562Z,9.38
2023-01-08T14:59:00.683Z,7.55
2023-01-08T15:01:31.123Z,14.82
2023-01-08T15:04:18.945Z,9.85
2023-01-08T15:06:46.533Z,13.43
2023-01-08T15:09:21.203Z,11.00
2023-01-08T15:11:55.468Z,10.05
2023-01-08T15:14:27.792Z,10.90
2023-01-08T15:17:05.177Z,14.27
2023-01-08T15:19:39.308Z,10.02
2023-01-08T15:22:16.455Z,11.45
2023-01-08T15:24:44.792Z,10.10
2023-01-08T15:27:19.800Z,9.55
2023-01-08T15:29:51.186Z,11.30
2023-01-08T15:32:18.059Z,14.27
2023-01-08T15:34:46.325Z,7.35
2023-01-08T15:37:14.893Z,12.68
2023-01-08T15:39:42.717Z,12.00
2023-01-08T15:42:37.174Z,7.78
2023-01-08T15:45:07.408Z,9.82
2023-01-08T15:47:34.230Z,10.55
2023-01-08T15:50:01.279Z,10.07
2023-01-08T15:52:29.768Z,9.70
2023-01-08T15:55:00.837Z,8.45
2023-01-08T15:57:31.960Z,9.15
2023-01-08T15:59:59.145Z,13.00
2023-01-08T16:02:26.297Z,12.65
2023-01-08T16:04:54.719Z,10.93
2023-01-08T16:07:22.293Z,14.75
2023-01-08T16:09:49.355Z,8.40
2023-01-08T16:12:16.178Z,9.35
2023-01-08T16:14:43.006Z,10.52
2023-01-08T16:17:10.320Z,11.88
2023-01-08T16:19:37.421Z,8.85
2023-01-08T16:22:04.712Z,7.57
2023-01-08T16:24:32.041Z,11.80
2023-01-08T16:26:58.985Z,7.60
2023-01-08T16:29:27.811Z,9.77
2023-01-08T16:31:55.418Z,7.43
2023-01-08T16:34:25.359Z,7.03
2023-01-08T16:36:52.458Z,13.43
2023-01-08T16:39:19.531Z,8.38
2023-01-08T16:42:03.738Z,9.55
2023-01-08T16:44:32.388Z,8.45
2023-01-08T16:47:01.454Z,7.18
2023-01-08T16:49:28.520Z,10.15
2023-01-08T16:51:55.509Z,14.75
2023-01-08T16:54:22.812Z,7.47
2023-01-08T16:56:49.873Z,11.05
2023-01-08T16:59:23.218Z,10.27
2023-01-08T17:01:51.245Z,9.95
2023-01-08T17:04:18.433Z,5.53
2023-01-08T17:06:46.839Z,8.23
2023-01-08T17:09:14.955Z,11.23
2023-01-08T17:11:42.428Z,12.65
2023-01-08T17:14:10.321Z,13.07
2023-01-08T17:16:37.208Z,7.50
2023-01-08T17:19:04.276Z,7.45
2023-01-08T17:21:31.294Z,9.48
2023-01-08T17:23:58.366Z,6.55
2023-01-08T17:26:25.518Z,8.43
2023-01-08T17:28:53.093Z,6.30
2023-01-08T17:31:20.591Z,6.70
2023-01-08T17:33:52.157Z,4.68
2023-01-08T17:36:25.089Z,7.43
2023-01-08T17:38:55.058Z,6.72
2023-01-08T17:41:41.200Z,8.82
2023-01-08T17:44:09.787Z,6.18
2023-01-08T17:46:39.682Z,6.38
2023-01-08T17:49:06.458Z,9.70
2023-01-08T17:51:33.681Z,9.65
2023-01-08T17:54:01.653Z,8.20
2023-01-08T17:56:28.618Z,7.78
2023-01-08T17:58:55.452Z,8.63
2023-01-08T18:01:22.558Z,9.60
2023-01-08T18:03:49.683Z,6.93
2023-01-08T18:06:16.651Z,11.43
2023-01-08T18:08:43.573Z,13.20
2023-01-08T18:11:10.918Z,9.57
2023-01-08T18:13:38.064Z,6.25
2023-01-08T18:16:07.591Z,9.32
2023-01-08T18:18:35.389Z,7.25
2023-01-08T18:21:02.396Z,6.38
2023-01-08T18:23:29.545Z,8.90
2023-01-08T18:25:56.847Z,8.48
2023-01-08T18:28:24.190Z,13.02
2023-01-08T18:30:51.517Z,7.95
2023-01-08T18:33:18.318Z,10.43
2023-01-08T18:35:45.350Z,8.45
2023-01-08T18:38:15.940Z,7.60
2023-01-08T18:40:43.499Z,8.50
2023-01-08T18:43:11.040Z,12.30
2023-01-08T18:45:39.617Z,8.55
2023-01-08T18:48:07.761Z,8.65
2023-01-08T18:50:34.742Z,7.00
2023-01-08T18:53:04.591Z,7.80
2023-01-08T18:55:31.564Z,7.50
2023-01-08T18:57:58.400Z,8.63
2023-01-08T19:00:26.542Z,7.07
2023-01-08T19:02:54.213Z,9.82
2023-01-08T19:05:23.513Z,12.20
2023-01-08T19:07:50.765Z,9.23
2023-01-08T19:10:17.855Z,9.23
2023-01-08T19:12:45.183Z,9.80
2023-01-08T19:15:12.576Z,11.20
2023-01-08T19:17:39.723Z,13.55
2023-01-08T19:20:07.224Z,9.52
2023-01-08T19:22:34.141Z,11.93
2023-01-08T19:25:01.261Z,8.23
2023-01-08T19:27:28.903Z,8.35
2023-01-08T19:29:56.855Z,9.68
2023-01-08T19:32:23.848Z,6.05
2023-01-08T19:34:50.756Z,6.60
2023-01-08T19:37:18.469Z,3.28
2023-01-08T19:39:45.500Z,7.22
2023-01-08T19:42:30.771Z,4.70
2023-01-08T19:44:57.887Z,4.45
2023-01-08T19:47:25.134Z,4.18
2023-01-08T19:49:52.157Z,8.25
2023-01-08T19:52:19.194Z,5.25
2023-01-08T19:54:46.502Z,6.20
2023-01-08T19:57:13.808Z,3.72
2023-01-08T19:59:40.777Z,3.58
2023-01-08T20:02:09.289Z,4.22
2023-01-08T20:04:43.868Z,3.90
2023-01-08T20:07:12.136Z,6.22
2023-01-08T20:09:39.660Z,5.88
2023-01-08T20:12:11.005Z,7.55
2023-01-08T20:14:38.274Z,5.47
2023-01-08T20:17:05.522Z,3.90
2023-01-08T20:19:32.848Z,5.40
2023-01-08T20:21:59.891Z,1.55
2023-01-08T20:24:26.972Z,0.93
2023-01-08T20:26:53.944Z,4.68
2023-01-08T20:29:21.290Z,4.85
2023-01-08T20:31:56.690Z,2.20
2023-01-08T20:34:24.539Z,2.60
2023-01-08T20:36:52.174Z,4.00
2023-01-08T20:39:19.529Z,3.72
2023-01-08T20:41:55.838Z,4.43
2023-01-08T20:44:31.075Z,3.00
2023-01-08T20:46:58.121Z,2.58
2023-01-08T20:49:26.682Z,2.35
2023-01-08T20:51:59.171Z,4.60
2023-01-08T20:54:27.327Z,3.95
2023-01-08T20:56:58.717Z,2.35
2023-01-08T20:59:26.248Z,3.15
2023-01-08T21:01:53.813Z,1.83
2023-01-08T21:04:20.999Z,2.95
2023-01-08T21:06:47.904Z,2.05
2023-01-08T21:09:16.596Z,5.63
2023-01-08T21:11:43.758Z,5.03
2023-01-08T21:14:11.209Z,3.42
2023-01-08T21:16:39.744Z,5.22
2023-01-08T21:19:09.872Z,6.35
2023-01-08T21:21:40.318Z,3.13
2023-01-08T21:24:10.007Z,3.22
2023-01-08T21:26:38.179Z,3.45
2023-01-08T21:29:06.670Z,2.75
2023-01-08T21:31:34.735Z,1.95
2023-01-08T21:34:05.845Z,5.25
2023-01-08T21:36:42.463Z,3.45
2023-01-08T21:39:11.194Z,2.17
2023-01-08T21:41:56.527Z,2.35
2023-01-08T21:44:44.364Z,3.63
2023-01-08T21:47:16.822Z,3.03
2023-01-08T21:49:45.142Z,3.90
2023-01-08T21:52:31.085Z,4.57
2023-01-08T21:54:58.355Z,3.45
2023-01-08T21:57:27.994Z,4.70
2023-01-08T21:59:56.563Z,2.17
2023-01-08T22:02:24.553Z,3.22
2023-01-08T22:04:55.330Z,3.17
2023-01-08T22:07:22.210Z,2.03
2023-01-08T22:09:49.029Z,4.78
2023-01-08T22:12:16.887Z,4.25
2023-01-08T22:14:43.964Z,2.03
2023-01-08T22:17:11.207Z,7.35
2023-01-08T22:19:39.339Z,5.22
2023-01-08T22:22:10.130Z,4.50
2023-01-08T22:24:37.554Z,4.20
2023-01-08T22:27:04.482Z,3.05
2023-01-08T22:29:31.913Z,2.38
2023-01-08T22:32:01.443Z,3.80
2023-01-08T22:34:32.383Z,4.18
2023-01-08T22:36:59.333Z,4.28
2023-01-08T22:39:26.718Z,3.90
2023-01-08T22:41:53.820Z,5.00
2023-01-08T22:44:20.791Z,5.88
2023-01-08T22:46:47.759Z,7.25
2023-01-08T22:49:15.082Z,3.38
2023-01-08T22:51:45.214Z,5.45
2023-01-08T22:54:13.699Z,4.03
2023-01-08T22:56:40.760Z,3.30
2023-01-08T22:59:07.627Z,6.50
2023-01-08T23:01:34.551Z,2.88
2023-01-08T23:04:01.805Z,4.90
2023-01-08T23:06:30.746Z,4.47
2023-01-08T23:08:58.827Z,4.35
2023-01-08T23:11:26.876Z,5.60
2023-01-08T23:13:55.957Z,6.80
2023-01-08T23:16:25.301Z,4.07
2023-01-08T23:18:56.612Z,4.40
2023-01-08T23:21:26.462Z,8.60
2023-01-08T23:23:53.368Z,6.10
2023-01-08T23:26:26.426Z,7.00
2023-01-08T23:28:54.312Z,5.50
2023-01-08T23:31:24.380Z,5.22
2023-01-08T23:33:52.228Z,5.55
2023-01-08T23:36:21.270Z,7.25
2023-01-08T23:38:50.485Z,5.50
2023-01-08T23:41:18.383Z,7.40
2023-01-08T23:43:46.143Z,7.30
2023-01-08T23:46:13.717Z,3.50
2023-01-08T23:48:40.855Z,10.90
2023-01-08T23:51:08.385Z,7.53
2023-01-08T23:53:35.377Z,3.60
2023-01-08T23:56:02.341Z,6.03
2023-01-08T23:58:29.397Z,5.72
